Time;durP1;ratioP1;P1;durP2;ratioP2;P2;SDS_P1;SDS_P2;PMS_P1;PMS_P2;Temp;Humidity;BMP_temperature;BMP_pressure;BME280_temperature;BME280_humidity;BME280_pressure;Samples;Min_cycle;Max_cycle;Signal;HPM_P1;HPM_P2
2024/04/18 16:36:19;;;;;;;9.68;1.92;;;;;;;14.35;37.09;100253.97;5546557;25;20339;-80
2024/04/18 16:39:20;;;;;;;5.80;1.00;;;;;;;14.21;37.82;100264.53;5546686;25;20027;-83
2024/04/18 16:42:22;;;;;;;9.32;4.13;;;;;;;14.06;38.72;100274.31;5519909;25;20025;-81
2024/04/18 16:45:16;;;;;;;4.18;1.65;;;;;;;14.08;39.24;100279.41;5519750;25;20025;-82
2024/04/18 16:48:06;;;;;;;1.95;0.75;;;;;;;13.95;39.05;100288.81;5547622;25;20029;-82
2024/04/18 16:51:01;;;;;;;4.20;0.98;;;;;;;13.89;39.25;100287.47;5545684;25;20029;-82
2024/04/18 16:54:13;;;;;;;0.98;0.75;;;;;;;13.74;40.03;100308.13;5509833;25;20041;-81
2024/04/18 16:57:24;;;;;;;5.57;2.58;;;;;;;13.79;40.54;100309.81;5509101;26;20030;-83
2024/04/18 17:00:17;;;;;;;2.72;1.33;;;;;;;13.78;39.60;100308.22;5533428;25;20026;-81
2024/04/18 17:03:29;;;;;;;9.10;2.47;;;;;;;13.75;39.96;100311.66;5506950;25;20037;-82
2024/04/18 17:06:24;;;;;;;6.47;1.35;;;;;;;13.70;39.68;100318.97;5507012;25;20030;-81
2024/04/18 17:09:16;;;;;;;2.87;1.70;;;;;;;13.50;39.50;100328.13;5556284;25;20462;-82
2024/04/18 17:12:08;;;;;;;3.90;0.60;;;;;;;13.49;39.09;100326.53;5543806;25;20281;-82
2024/04/18 17:15:19;;;;;;;20.02;9.32;;;;;;;13.68;40.16;100323.97;5531368;25;20030;-81
2024/04/18 17:18:13;;;;;;;1.40;0.60;;;;;;;13.46;39.60;100334.63;5508515;25;20051;-83
2024/04/18 17:21:08;;;;;;;5.53;2.70;;;;;;;13.48;39.86;100341.31;5541382;25;20033;-80
2024/04/18 17:24:03;;;;;;;0.20;0.10;;;;;;;13.37;39.78;100347.56;5535979;25;20487;-80
2024/04/18 17:26:57;;;;;;;5.30;1.97;;;;;;;13.42;40.71;100359.06;5522753;25;20025;-81
2024/04/18 17:29:52;;;;;;;0.20;0.20;;;;;;;13.23;40.46;100359.66;5506145;25;20033;-82
2024/04/18 17:32:42;;;;;;;0.68;0.40;;;;;;;13.19;41.58;100360.69;5540907;25;20025;-83
2024/04/18 17:35:50;;;;;;;2.30;1.50;;;;;;;12.91;43.89;100354.25;5535136;25;20029;-81
2024/04/18 17:39:02;;;;;;;5.47;1.20;;;;;;;12.81;44.65;100364.47;5554765;25;20036;-82
2024/04/18 17:41:51;;;;;;;1.77;0.88;;;;;;;12.73;45.64;100376.28;5514064;25;20028;-81
2024/04/18 17:45:09;;;;;;;3.90;0.60;;;;;;;12.69;46.12;100375.38;5532064;25;20037;-80
2024/04/18 17:48:21;;;;;;;4.15;1.05;;;;;;;12.73;47.17;100394.59;5533477;25;20028;-81
2024/04/18 17:51:15;;;;;;;1.00;0.60;;;;;;;12.64;47.70;100389.22;5514157;25;20033;-82
2024/04/18 17:54:10;;;;;;;2.92;1.38;;;;;;;12.65;47.88;100400.91;5525351;25;20049;-83
2024/04/18 17:57:05;;;;;;;4.27;0.90;;;;;;;12.62;48.74;100404.31;5538471;25;20036;-82
2024/04/18 17:59:57;;;;;;;5.55;0.93;;;;;;;12.66;49.75;100406.03;5534420;25;20289;-83
2024/04/18 18:02:52;;;;;;;4.78;1.38;;;;;;;12.54;50.84;100406.00;5527082;25;20037;-82
2024/04/18 18:06:07;;;;;;;7.72;1.15;;;;;;;12.61;51.27;100419.88;5477139;26;20491;-83
2024/04/18 18:09:00;;;;;;;4.63;1.08;;;;;;;12.59;50.81;100422.16;5533593;25;20042;-82
2024/04/18 18:11:57;;;;;;;8.43;1.08;;;;;;;12.53;51.90;100419.97;5514698;25;20004;-81
2024/04/18 18:14:47;;;;;;;1.45;0.75;;;;;;;12.58;51.76;100425.22;5505530;25;20041;-80
2024/04/18 18:17:42;;;;;;;3.97;0.57;;;;;;;12.51;51.91;100425.75;5483848;25;20029;-82
2024/04/18 18:20:32;;;;;;;2.25;1.00;;;;;;;12.38;52.32;100433.09;5528725;25;20033;-83
2024/04/18 18:23:29;;;;;;;3.13;0.68;;;;;;;12.37;52.61;100434.22;5518155;25;20485;-82
2024/04/18 18:26:19;;;;;;;11.65;1.38;;;;;;;12.31;52.19;100449.19;5539607;25;20473;-82
2024/04/18 18:29:12;;;;;;;1.13;0.75;;;;;;;12.35;52.07;100452.03;5511424;25;20037;-81
2024/04/18 18:32:23;;;;;;;4.60;1.10;;;;;;;12.04;53.49;100455.16;5546863;25;20511;-80
2024/04/18 18:35:15;;;;;;;1.93;0.90;;;;;;;11.97;53.89;100466.59;5530498;25;20033;-80
2024/04/18 18:38:10;;;;;;;1.52;0.85;;;;;;;12.00;54.38;100465.94;5524033;25;20041;-81
2024/04/18 18:41:02;;;;;;;4.03;0.90;;;;;;;11.98;54.23;100468.19;5514067;26;20033;-81
2024/04/18 18:43:57;;;;;;;1.15;0.60;;;;;;;12.06;53.61;100482.09;5511844;25;20382;-81
2024/04/18 18:46:51;;;;;;;3.35;0.73;;;;;;;12.08;53.27;100494.28;5496936;25;20036;-80
2024/04/18 18:49:44;;;;;;;4.05;1.17;;;;;;;12.02;53.91;100494.78;5510724;25;20033;-81
2024/04/18 18:52:38;;;;;;;2.75;1.55;;;;;;;12.20;54.79;100498.97;5503293;25;20044;-81
2024/04/18 18:55:33;;;;;;;14.40;6.38;;;;;;;11.86;54.62;100508.16;5526028;25;20507;-81
2024/04/18 18:58:31;;;;;;;21.80;8.80;;;;;;;11.75;55.52;100518.63;5513840;25;20044;-81
2024/04/18 19:01:23;;;;;;;10.63;5.63;;;;;;;11.51;56.40;100519.19;5557950;25;20033;-82
2024/04/18 19:04:33;;;;;;;12.73;5.20;;;;;;;11.54;55.66;100537.59;5562968;25;20032;-79
2024/04/18 19:07:28;;;;;;;9.38;4.13;;;;;;;11.51;56.13;100540.19;5561589;25;20487;-82
2024/04/18 19:10:22;;;;;;;4.83;2.93;;;;;;;11.47;55.24;100544.69;5487207;26;20033;-83
2024/04/18 19:13:17;;;;;;;3.97;1.60;;;;;;;11.56;55.92;100557.16;5486163;26;20030;-82
2024/04/18 19:16:19;;;;;;;6.05;1.25;;;;;;;11.28;56.41;100557.84;5488285;26;20026;-83
2024/04/18 19:19:11;;;;;;;1.70;0.90;;;;;;;11.40;55.47;100557.97;5488702;26;20049;-83
2024/04/18 19:22:08;;;;;;;5.03;1.00;;;;;;;11.43;55.62;100566.28;5480909;26;20046;-82
2024/04/18 19:25:00;;;;;;;2.70;1.10;;;;;;;11.28;57.27;100569.53;5495904;25;20262;-81
2024/04/18 19:27:55;;;;;;;1.73;1.10;;;;;;;11.39;57.29;100572.72;5511191;25;20037;-82
2024/04/18 19:30:51;;;;;;;4.25;0.90;;;;;;;11.32;57.16;100581.41;5518682;25;20029;-82
2024/04/18 19:33:45;;;;;;;0.98;0.88;;;;;;;11.23;57.17;100583.31;5501589;26;20038;-81
2024/04/18 19:36:40;;;;;;;1.23;0.90;;;;;;;11.30;56.73;100589.06;5491199;25;20393;-80
2024/04/18 19:39:32;;;;;;;1.37;0.93;;;;;;;11.06;57.02;100586.88;5523474;25;20029;-80
2024/04/18 19:42:30;;;;;;;2.38;1.10;;;;;;;11.28;56.66;100598.66;5537726;25;20032;-81
2024/04/18 19:45:30;;;;;;;2.63;1.40;;;;;;;11.07;56.82;100602.06;5524614;26;20021;-82
2024/04/18 19:48:24;;;;;;;2.25;1.25;;;;;;;11.06;57.21;100595.03;5499495;26;20490;-81
2024/04/18 19:51:16;;;;;;;2.80;1.20;;;;;;;11.11;57.00;100596.78;5500027;26;20026;-82
2024/04/18 19:54:11;;;;;;;2.15;1.20;;;;;;;11.11;57.80;100596.78;5524991;26;20028;-80
2024/04/18 19:57:03;;;;;;;2.67;0.73;;;;;;;11.30;57.49;100601.88;5523311;26;20029;-81
2024/04/18 19:59:55;;;;;;;6.22;1.30;;;;;;;11.33;57.22;100612.13;5524925;26;20029;-81
2024/04/18 20:02:51;;;;;;;1.23;0.68;;;;;;;11.12;58.17;100614.72;5511253;25;20041;-80
2024/04/18 20:05:43;;;;;;;1.65;0.90;;;;;;;11.10;57.62;100628.63;5463549;26;20037;-80
2024/04/18 20:08:38;;;;;;;1.20;0.90;;;;;;;10.92;58.17;100631.69;5507273;26;20030;-80
2024/04/18 20:11:30;;;;;;;4.63;1.10;;;;;;;10.78;58.95;100626.38;5497979;26;20033;-80
2024/04/18 20:14:24;;;;;;;1.07;0.77;;;;;;;10.96;58.93;100628.00;5522871;25;20026;-80
2024/04/18 20:17:19;;;;;;;1.73;0.97;;;;;;;10.92;59.22;100628.97;5497361;26;20029;-80
2024/04/18 20:20:11;;;;;;;1.48;1.13;;;;;;;10.86;58.61;100622.06;5497488;26;20262;-80
2024/04/18 20:23:03;;;;;;;3.83;1.35;;;;;;;10.92;59.29;100627.03;5496608;25;20021;-81
2024/04/18 20:25:58;;;;;;;2.63;1.27;;;;;;;10.85;59.02;100624.00;5523884;26;20029;-81
2024/04/18 20:28:49;;;;;;;3.40;1.35;;;;;;;10.72;59.54;100622.19;5497587;26;20022;-78
2024/04/18 20:31:46;;;;;;;5.28;1.35;;;;;;;10.78;59.52;100639.16;5497647;25;20029;-78
2024/04/18 20:34:39;;;;;;;5.72;1.85;;;;;;;10.71;59.71;100634.22;5523505;25;20025;-82
2024/04/18 20:37:33;;;;;;;3.28;1.55;;;;;;;10.77;59.81;100641.09;5522468;25;20041;-81
2024/04/18 20:40:28;;;;;;;6.40;1.63;;;;;;;10.40;60.09;100652.53;5522626;25;20025;-83
2024/04/18 20:43:22;;;;;;;2.05;1.40;;;;;;;10.20;60.45;100643.84;5521424;25;20658;-81
2024/04/18 20:46:24;;;;;;;5.63;1.80;;;;;;;10.38;60.50;100649.31;5524371;26;20459;-82
2024/04/18 20:49:19;;;;;;;3.28;1.80;;;;;;;10.38;61.16;100657.47;5486551;26;20050;-82
2024/04/18 20:52:09;;;;;;;4.13;1.75;;;;;;;10.49;60.60;100658.78;5527777;25;20029;-81
2024/04/18 20:55:24;;;;;;;6.07;2.40;;;;;;;10.45;60.47;100666.00;5502562;25;20010;-81
2024/04/18 20:58:19;;;;;;;5.13;2.10;;;;;;;10.55;60.08;100671.13;5505151;25;20394;-80
2024/04/18 21:01:17;;;;;;;14.43;6.20;;;;;;;10.58;59.85;100679.44;5488425;26;20042;-83
2024/04/18 21:04:12;;;;;;;27.67;11.70;;;;;;;10.67;59.66;100684.91;5514275;26;20037;-80
2024/04/18 21:07:06;;;;;;;4.00;1.87;;;;;;;10.50;60.24;100676.72;5508692;26;20038;-82
2024/04/18 21:10:01;;;;;;;4.53;2.23;;;;;;;10.59;60.84;100674.81;5507383;25;20041;-80
2024/04/18 21:12:56;;;;;;;25.92;10.20;;;;;;;10.46;61.02;100678.47;5504509;25;20033;-80
2024/04/18 21:16:00;;;;;;;3.90;2.33;;;;;;;10.40;60.18;100679.72;5470547;26;20037;-80
2024/04/18 21:18:53;;;;;;;5.22;2.03;;;;;;;10.31;60.61;100685.09;5484468;26;20030;-81
2024/04/18 21:21:45;;;;;;;4.07;2.03;;;;;;;9.96;61.31;100686.03;5461048;26;20026;-78
2024/04/18 21:24:35;;;;;;;4.85;1.95;;;;;;;9.92;61.90;100685.06;5489367;26;20275;-81
2024/04/18 21:27:29;;;;;;;7.85;4.82;;;;;;;9.87;61.71;100694.94;5488382;26;20015;-81
2024/04/18 21:30:22;;;;;;;5.17;2.43;;;;;;;9.79;62.12;100687.56;5489441;26;20030;-81
2024/04/18 21:33:16;;;;;;;9.55;2.17;;;;;;;9.85;62.29;100691.72;5487926;26;20029;-82
2024/04/18 21:36:09;;;;;;;4.68;1.67;;;;;;;9.93;61.99;100694.81;5462771;26;20014;-83
2024/04/18 21:39:04;;;;;;;2.90;1.80;;;;;;;9.93;61.95;100698.34;5490122;26;20030;-81
2024/04/18 21:41:58;;;;;;;1.92;1.58;;;;;;;9.97;61.38;100703.94;5489022;26;20383;-79
2024/04/18 21:44:53;;;;;;;4.80;1.63;;;;;;;9.93;61.96;100703.78;5488258;26;20491;-81
2024/04/18 21:47:48;;;;;;;6.00;1.70;;;;;;;9.96;61.29;100702.31;5488157;26;20026;-79
2024/04/18 21:50:42;;;;;;;6.27;2.30;;;;;;;9.84;61.89;100709.16;5489917;26;20271;-81
2024/04/18 21:53:35;;;;;;;4.32;1.63;;;;;;;9.56;62.72;100713.09;5487464;26;20291;-81
2024/04/18 21:56:30;;;;;;;8.75;3.13;;;;;;;9.42;63.85;100707.75;5489404;26;20054;-80
2024/04/18 21:59:24;;;;;;;3.63;1.40;;;;;;;9.52;63.50;100719.47;5489714;26;20030;-82
2024/04/18 22:02:21;;;;;;;3.85;1.80;;;;;;;9.57;62.61;100711.19;5489145;26;20026;-82
2024/04/18 22:05:16;;;;;;;6.20;2.15;;;;;;;9.75;62.13;100718.38;5487481;26;20027;-81
2024/04/18 22:08:11;;;;;;;2.97;1.60;;;;;;;9.55;62.54;100718.84;5487839;26;20375;-81
2024/04/18 22:11:03;;;;;;;13.80;2.22;;;;;;;9.58;62.15;100712.81;5489197;26;20275;-82
2024/04/18 22:14:01;;;;;;;5.50;3.20;;;;;;;9.49;62.41;100720.09;5486900;26;20761;-83
2024/04/18 22:16:56;;;;;;;6.53;2.15;;;;;;;9.37;61.84;100717.91;5488951;26;20033;-83
2024/04/18 22:19:51;;;;;;;8.88;1.98;;;;;;;9.23;62.50;100723.38;5462568;26;20022;-81
2024/04/18 22:22:45;;;;;;;4.55;2.17;;;;;;;9.13;62.88;100726.31;5487736;26;20524;-83
2024/04/18 22:25:43;;;;;;;3.88;1.55;;;;;;;9.10;63.40;100723.41;5487269;26;20030;-83
2024/04/18 22:28:37;;;;;;;3.72;1.92;;;;;;;9.11;63.37;100733.16;5487604;26;20026;-84
2024/04/18 22:31:37;;;;;;;3.75;2.30;;;;;;;9.22;63.45;100737.25;5487342;26;20029;-82
2024/04/18 22:34:32;;;;;;;3.20;2.17;;;;;;;9.22;63.03;100732.63;5461753;26;20025;-81
2024/04/18 22:37:22;;;;;;;3.88;1.90;;;;;;;9.25;63.20;100728.47;5486604;26;19997;-82
2024/04/18 22:40:16;;;;;;;3.88;2.05;;;;;;;9.23;63.04;100738.84;5486866;26;20026;-81
2024/04/18 22:43:11;;;;;;;4.03;2.20;;;;;;;9.22;63.07;100743.47;5461259;26;20500;-81
2024/04/18 22:46:05;;;;;;;2.00;1.30;;;;;;;9.31;63.04;100729.97;5488274;26;20378;-82
2024/04/18 22:49:00;;;;;;;2.67;1.77;;;;;;;9.42;62.52;100734.06;5461994;26;20283;-81
2024/04/18 22:51:55;;;;;;;4.28;1.45;;;;;;;9.22;62.86;100738.06;5486089;26;20383;-81
2024/04/18 22:54:50;;;;;;;2.27;1.50;;;;;;;9.37;62.16;100745.84;5461681;26;20026;-80
2024/04/18 22:57:45;;;;;;;6.13;1.65;;;;;;;9.16;62.89;100744.69;5486708;26;20258;-81
2024/04/18 23:00:43;;;;;;;4.47;1.80;;;;;;;9.26;63.00;100749.09;5488171;26;20030;-81
2024/04/18 23:03:38;;;;;;;5.47;2.15;;;;;;;9.34;61.77;100757.31;5460989;26;20030;-81
2024/04/18 23:06:49;;;;;;;12.25;1.90;;;;;;;9.22;62.66;100753.53;5488557;26;20034;-81
2024/04/18 23:09:44;;;;;;;8.13;1.73;;;;;;;9.16;62.40;100750.13;5461736;26;20495;-83
2024/04/18 23:12:39;;;;;;;1.70;1.20;;;;;;;9.14;63.12;100751.53;5486873;26;20026;-79
2024/04/18 23:15:34;;;;;;;2.77;1.60;;;;;;;9.07;63.34;100753.84;5461470;26;20030;-80
2024/04/18 23:18:24;;;;;;;5.80;1.67;;;;;;;9.28;63.13;100769.41;5521807;26;20029;-79
2024/04/18 23:21:18;;;;;;;3.30;1.80;;;;;;;9.42;62.20;100762.00;5525100;26;20025;-81
2024/04/18 23:24:13;;;;;;;2.53;1.30;;;;;;;9.53;62.02;100764.50;5498238;26;20483;-80
2024/04/18 23:27:08;;;;;;;3.50;1.92;;;;;;;9.21;63.13;100766.28;5524086;26;20031;-79
2024/04/18 23:30:02;;;;;;;2.53;1.20;;;;;;;9.18;62.97;100764.19;5524199;26;20025;-82
2024/04/18 23:32:57;;;;;;;2.30;1.40;;;;;;;9.18;63.25;100768.81;5523498;26;20045;-81
2024/04/18 23:35:52;;;;;;;6.00;1.73;;;;;;;9.07;63.01;100762.00;5523535;26;20026;-80
2024/04/18 23:38:46;;;;;;;3.53;1.88;;;;;;;9.10;63.09;100767.59;5523318;26;20286;-82
2024/04/18 23:41:41;;;;;;;5.45;1.83;;;;;;;8.98;62.63;100770.84;5523326;26;20026;-81
2024/04/18 23:44:36;;;;;;;2.97;1.30;;;;;;;8.57;62.92;100772.75;5523013;26;20041;-81
2024/04/18 23:47:23;;;;;;;4.57;1.52;;;;;;;8.63;63.71;100770.75;5498940;25;20002;-83
2024/04/18 23:50:18;;;;;;;2.83;1.85;;;;;;;8.74;62.85;100769.44;5538331;25;20033;-82
2024/04/18 23:53:13;;;;;;;2.40;1.77;;;;;;;8.73;63.78;100767.84;5544739;25;20033;-82
2024/04/18 23:56:07;;;;;;;3.00;2.33;;;;;;;8.97;63.12;100771.94;5494881;26;20006;-80
2024/04/18 23:59:02;;;;;;;7.38;2.90;;;;;;;8.92;63.25;100768.53;5486175;26;20033;-81
